Time;durP1;ratioP1;P1;durP2;ratioP2;P2;SDS_P1;SDS_P2;PMS_P1;PMS_P2;Temp;Humidity;BMP_temperature;BMP_pressure;BME280_temperature;BME280_humidity;BME280_pressure;Samples;Min_cycle;Max_cycle;Signal;HPM_P1;HPM_P2
2022/03/20 05:01:17;;;;;;;21.27;11.27;;;2.90;99.90;;;;;;6292060;22;20030;-86
2022/03/20 05:03:43;;;;;;;20.85;10.80;;;2.90;99.90;;;;;;6313848;22;20023;-86
2022/03/20 05:06:08;;;;;;;21.92;11.05;;;2.80;99.90;;;;;;6288365;22;20014;-85
2022/03/20 05:08:37;;;;;;;23.23;11.80;;;2.80;99.90;;;;;;6340039;22;20014;-86
2022/03/20 05:13:50;;;;;;;25.00;12.43;;;2.80;99.90;;;;;;6314233;22;20448;-86
2022/03/20 05:16:16;;;;;;;23.27;11.32;;;2.80;99.90;;;;;;6315567;22;20344;-85
2022/03/20 05:18:42;;;;;;;21.88;11.90;;;2.70;99.90;;;;;;6314007;22;20006;-88
2022/03/20 05:21:10;;;;;;;23.20;11.85;;;2.80;99.90;;;;;;6341957;22;20007;-84
2022/03/20 05:23:36;;;;;;;25.27;12.40;;;2.80;99.90;;;;;;6314035;22;20046;-86
2022/03/20 05:26:02;;;;;;;25.98;13.15;;;2.70;99.90;;;;;;6342482;22;20015;-85
2022/03/20 05:28:28;;;;;;;19.67;11.55;;;2.70;99.90;;;;;;6314473;22;20321;-86
2022/03/20 05:30:54;;;;;;;22.65;12.50;;;2.70;99.90;;;;;;6314535;22;20014;-89
2022/03/20 05:33:21;;;;;;;24.42;12.27;;;2.70;99.90;;;;;;6313321;22;20011;-88
2022/03/20 05:35:47;;;;;;;26.70;12.55;;;2.70;99.90;;;;;;6340644;22;20035;-89
2022/03/20 05:38:13;;;;;;;23.25;11.98;;;2.70;99.90;;;;;;6287805;22;20011;-85
2022/03/20 05:40:41;;;;;;;21.48;11.52;;;2.70;99.90;;;;;;6313596;22;20018;-85
2022/03/20 05:43:09;;;;;;;30.75;13.90;;;2.70;99.90;;;;;;6341199;22;20042;-85
2022/03/20 05:45:40;;;;;;;24.73;13.30;;;2.70;99.90;;;;;;6314502;22;20011;-85
2022/03/20 05:48:08;;;;;;;24.08;12.25;;;2.70;99.90;;;;;;6313752;22;20025;-88
2022/03/20 05:50:34;;;;;;;24.10;12.77;;;2.70;99.90;;;;;;6340769;22;20065;-87
2022/03/20 05:52:59;;;;;;;26.20;13.13;;;2.70;99.90;;;;;;6287770;22;20010;-88
2022/03/20 05:58:13;;;;;;;27.63;13.32;;;2.70;99.90;;;;;;6314266;22;20437;-88
2022/03/20 06:00:42;;;;;;;25.58;12.68;;;2.70;99.90;;;;;;6313322;22;20007;-85
2022/03/20 06:03:09;;;;;;;25.73;13.43;;;2.80;99.90;;;;;;6313289;22;20051;-87
2022/03/20 06:05:36;;;;;;;23.13;12.73;;;2.80;99.90;;;;;;6288701;22;20050;-85
2022/03/20 06:08:01;;;;;;;25.67;12.70;;;2.80;99.90;;;;;;6312956;22;20091;-90
2022/03/20 06:10:28;;;;;;;23.77;12.82;;;2.70;99.90;;;;;;6312437;22;20432;-85
2022/03/20 06:12:53;;;;;;;28.38;12.05;;;2.80;99.90;;;;;;6341641;22;20006;-85
2022/03/20 06:15:19;;;;;;;26.60;14.13;;;2.80;99.90;;;;;;6341327;22;20408;-85
2022/03/20 06:17:45;;;;;;;23.35;13.63;;;2.80;99.90;;;;;;6341097;22;20014;-87
2022/03/20 06:20:12;;;;;;;24.92;12.82;;;2.80;99.90;;;;;;6313134;22;20006;-87
2022/03/20 06:22:38;;;;;;;26.77;13.25;;;2.80;99.90;;;;;;6313058;22;20002;-86
2022/03/20 06:25:08;;;;;;;29.20;14.23;;;2.80;99.90;;;;;;6312833;22;20379;-85
2022/03/20 06:27:47;;;;;;;25.73;13.00;;;2.80;99.90;;;;;;6313631;22;20015;-84
2022/03/20 06:30:14;;;;;;;27.35;12.63;;;2.90;99.90;;;;;;6313078;22;20034;-87
2022/03/20 06:32:41;;;;;;;41.72;12.38;;;2.90;99.90;;;;;;6313280;22;20082;-84
2022/03/20 06:35:08;;;;;;;24.80;13.75;;;2.90;99.90;;;;;;6315033;22;20002;-89
2022/03/20 06:37:38;;;;;;;25.25;13.70;;;2.90;99.90;;;;;;6314621;22;20019;-84
2022/03/20 06:40:04;;;;;;;25.45;13.15;;;2.90;99.90;;;;;;6314375;22;20011;-85
2022/03/20 06:42:30;;;;;;;27.42;13.55;;;2.90;99.90;;;;;;6314598;22;20002;-87
2022/03/20 06:44:59;;;;;;;26.92;13.45;;;2.90;99.90;;;;;;6316378;22;20021;-87
2022/03/20 06:47:26;;;;;;;25.48;13.60;;;3.00;99.90;;;;;;6314625;22;20015;-84
2022/03/20 06:49:53;;;;;;;23.92;14.25;;;3.00;99.90;;;;;;6289595;22;20315;-87
2022/03/20 06:52:21;;;;;;;28.90;13.40;;;3.00;99.90;;;;;;6315301;22;20006;-84
2022/03/20 06:54:48;;;;;;;27.58;15.00;;;3.00;99.90;;;;;;6288869;22;20010;-86
2022/03/20 06:57:13;;;;;;;25.13;12.75;;;3.10;99.90;;;;;;6342930;22;20409;-86
2022/03/20 06:59:39;;;;;;;23.15;12.93;;;3.10;99.90;;;;;;6315450;22;20060;-85
2022/03/20 07:02:05;;;;;;;30.13;14.73;;;3.10;99.90;;;;;;6342684;22;20317;-90
2022/03/20 07:04:31;;;;;;;26.33;13.90;;;3.10;99.90;;;;;;6314648;22;20015;-88
2022/03/20 07:06:58;;;;;;;27.10;14.75;;;3.10;99.90;;;;;;6315054;22;20011;-88
2022/03/20 07:09:23;;;;;;;29.92;15.85;;;3.20;99.90;;;;;;6288512;22;20499;-86
2022/03/20 07:11:49;;;;;;;23.42;12.55;;;3.20;99.90;;;;;;6314620;22;20068;-84
2022/03/20 07:14:14;;;;;;;27.17;14.25;;;3.20;99.90;;;;;;6315301;22;20014;-86
2022/03/20 07:16:42;;;;;;;26.85;14.48;;;3.30;99.90;;;;;;6343158;22;20428;-88
2022/03/20 07:19:08;;;;;;;28.73;14.32;;;3.30;99.90;;;;;;6314642;22;20018;-89
2022/03/20 07:21:34;;;;;;;29.90;15.20;;;3.40;99.90;;;;;;6314655;22;20052;-86
2022/03/20 07:24:02;;;;;;;26.15;14.00;;;3.40;99.90;;;;;;6315284;22;20003;-87
2022/03/20 07:29:30;;;;;;;25.98;13.77;;;3.60;99.90;;;;;;6343104;22;20018;-87
2022/03/20 07:31:57;;;;;;;26.90;13.75;;;3.60;99.90;;;;;;6315258;22;20079;-87
2022/03/20 07:34:23;;;;;;;26.73;14.18;;;3.70;99.90;;;;;;6315538;22;20374;-84
2022/03/20 07:36:50;;;;;;;25.08;14.52;;;3.70;99.90;;;;;;6342660;22;20416;-86
2022/03/20 07:39:17;;;;;;;27.30;14.23;;;3.80;99.90;;;;;;6314560;22;20015;-85
2022/03/20 07:41:43;;;;;;;27.27;13.48;;;3.80;99.90;;;;;;6314725;22;20029;-84
2022/03/20 07:44:09;;;;;;;25.00;14.40;;;3.90;99.90;;;;;;6341964;22;20019;-83
2022/03/20 07:46:36;;;;;;;25.08;14.55;;;3.90;99.90;;;;;;6314527;22;20166;-83
2022/03/20 07:49:02;;;;;;;24.58;14.55;;;4.00;99.90;;;;;;6342253;22;20007;-88
2022/03/20 07:51:30;;;;;;;27.35;13.70;;;4.10;99.90;;;;;;6315279;22;20006;-88
2022/03/20 07:53:56;;;;;;;27.45;15.48;;;4.10;99.90;;;;;;6314982;22;20007;-86
2022/03/20 07:56:23;;;;;;;26.17;14.73;;;4.20;99.90;;;;;;6342617;22;20467;-86
2022/03/20 07:58:52;;;;;;;24.17;14.02;;;4.20;99.90;;;;;;6315183;22;20011;-87
2022/03/20 08:01:17;;;;;;;27.55;14.40;;;4.30;99.90;;;;;;6314101;22;20014;-87
2022/03/20 08:03:43;;;;;;;28.23;15.10;;;4.40;99.90;;;;;;6342476;22;19990;-88
2022/03/20 08:06:09;;;;;;;27.08;15.05;;;4.40;99.90;;;;;;6315251;22;20022;-88
2022/03/20 08:08:39;;;;;;;30.20;15.05;;;4.50;99.90;;;;;;6289512;22;20011;-87
2022/03/20 08:11:07;;;;;;;29.30;15.23;;;4.60;99.90;;;;;;6315991;22;20010;-89
2022/03/20 08:13:34;;;;;;;24.70;14.57;;;4.60;99.90;;;;;;6314700;22;20015;-86
2022/03/20 08:16:00;;;;;;;27.95;15.02;;;4.70;99.90;;;;;;6314686;22;20015;-87
2022/03/20 08:18:26;;;;;;;24.75;13.93;;;4.70;99.90;;;;;;6315303;22;20076;-91
2022/03/20 08:20:51;;;;;;;27.58;14.02;;;4.80;99.90;;;;;;6315468;22;20408;-93
2022/03/20 08:23:17;;;;;;;27.13;16.05;;;4.90;99.90;;;;;;6343055;22;20011;-90
2022/03/20 08:25:43;;;;;;;32.47;15.75;;;5.00;99.90;;;;;;6289743;22;20015;-91
2022/03/20 08:28:12;;;;;;;28.48;14.35;;;5.00;99.90;;;;;;6314406;22;20355;-92
2022/03/20 08:30:40;;;;;;;28.58;14.32;;;5.10;99.90;;;;;;6314803;22;20026;-91
2022/03/20 08:33:05;;;;;;;29.15;15.60;;;5.20;99.90;;;;;;6288896;22;20089;-87
2022/03/20 08:35:31;;;;;;;28.25;13.90;;;5.30;99.90;;;;;;6315014;22;20034;-86
2022/03/20 08:37:57;;;;;;;31.42;16.05;;;5.30;99.90;;;;;;6341846;22;20087;-85
2022/03/20 08:40:25;;;;;;;28.02;15.52;;;5.40;99.90;;;;;;6314680;22;20409;-89
2022/03/20 08:42:54;;;;;;;26.92;15.05;;;5.50;99.90;;;;;;6342884;22;20006;-88
2022/03/20 08:45:21;;;;;;;26.48;15.55;;;5.60;99.90;;;;;;6342732;22;20470;-90
2022/03/20 08:47:47;;;;;;;28.17;15.77;;;5.70;99.90;;;;;;6288391;22;20029;-87
2022/03/20 08:50:14;;;;;;;30.30;16.40;;;5.80;99.90;;;;;;6315868;22;20439;-90
2022/03/20 08:52:44;;;;;;;30.15;15.77;;;5.90;99.90;;;;;;6326764;22;20282;-87
2022/03/20 08:55:10;;;;;;;29.52;15.65;;;6.00;99.90;;;;;;6329285;22;20034;-87
2022/03/20 08:57:41;;;;;;;27.55;15.27;;;6.20;99.90;;;;;;6306879;22;20116;-90
2022/03/20 09:00:15;;;;;;;27.70;15.63;;;6.30;99.90;;;;;;6308527;22;20034;-88
2022/03/20 09:03:00;;;;;;;26.45;14.93;;;6.40;99.90;;;;;;6327133;22;20374;-92
2022/03/20 09:05:36;;;;;;;26.15;15.30;;;6.50;99.90;;;;;;6299333;22;20038;-89
2022/03/20 09:08:01;;;;;;;28.23;15.32;;;6.60;99.90;;;;;;6345261;22;20042;-90
2022/03/20 09:10:28;;;;;;;29.50;15.45;;;6.70;99.90;;;;;;6316266;22;20018;-86
2022/03/20 09:12:55;;;;;;;27.98;15.52;;;6.80;99.90;;;;;;6315822;22;20014;-89
2022/03/20 09:15:22;;;;;;;26.02;16.13;;;7.00;99.90;;;;;;6315593;22;20007;-88
2022/03/20 09:20:39;;;;;;;25.58;15.38;;;7.20;99.90;;;;;;6313715;22;20023;-90
2022/03/20 09:23:07;;;;;;;27.58;15.88;;;7.30;99.90;;;;;;6342134;22;20482;-90
2022/03/20 09:25:32;;;;;;;27.15;15.93;;;7.40;99.90;;;;;;6312972;22;20034;-83
2022/03/20 09:28:03;;;;;;;30.10;16.15;;;7.50;99.90;;;;;;6313267;22;20007;-88
2022/03/20 09:30:30;;;;;;;26.17;15.45;;;7.60;99.90;;;;;;6287607;22;20011;-90
2022/03/20 09:32:55;;;;;;;29.90;16.95;;;7.70;99.90;;;;;;6313414;22;20010;-87
2022/03/20 09:35:21;;;;;;;25.73;16.45;;;7.90;99.90;;;;;;6287976;22;20015;-87
2022/03/20 09:37:47;;;;;;;27.98;16.98;;;8.00;99.90;;;;;;6313424;22;20514;-89
2022/03/20 09:40:15;;;;;;;28.33;16.08;;;8.10;99.90;;;;;;6314572;22;20007;-89
2022/03/20 09:42:41;;;;;;;28.05;15.85;;;8.20;99.90;;;;;;6287492;22;20038;-87
2022/03/20 09:45:12;;;;;;;26.88;16.23;;;8.40;99.90;;;;;;6313644;22;20018;-86
2022/03/20 09:47:39;;;;;;;29.90;17.05;;;8.50;99.90;;;;;;6312897;22;20040;-85
2022/03/20 09:50:07;;;;;;;27.23;17.10;;;8.50;99.90;;;;;;6313265;22;20015;-86
2022/03/20 09:52:34;;;;;;;33.00;17.00;;;8.60;99.90;;;;;;6287112;22;20053;-85
2022/03/20 09:55:13;;;;;;;32.08;17.25;;;8.70;99.90;;;;;;6286993;22;20014;-87
2022/03/20 09:57:44;;;;;;;31.92;18.55;;;8.90;99.90;;;;;;6288837;22;20100;-86
2022/03/20 10:00:17;;;;;;;27.15;16.08;;;9.10;99.90;;;;;;6313443;22;20069;-86
2022/03/20 10:02:46;;;;;;;28.90;17.13;;;9.20;99.90;;;;;;6287537;22;20425;-86
2022/03/20 10:05:22;;;;;;;29.98;18.08;;;9.30;99.90;;;;;;6312318;22;20015;-89
2022/03/20 10:07:48;;;;;;;29.83;17.20;;;9.40;99.10;;;;;;6287779;22;20018;-88
2022/03/20 10:10:18;;;;;;;28.52;17.20;;;9.60;99.90;;;;;;6314208;22;20014;-87
2022/03/20 10:12:52;;;;;;;27.25;17.10;;;9.70;98.30;;;;;;6313553;22;20021;-87
2022/03/20 10:15:37;;;;;;;30.25;17.85;;;9.80;96.80;;;;;;6313975;22;20015;-88
2022/03/20 10:18:28;;;;;;;28.13;16.70;;;9.90;94.40;;;;;;6314297;22;20011;-89
2022/03/20 10:20:59;;;;;;;28.70;16.92;;;10.00;94.40;;;;;;6190459;23;20008;-88
2022/03/20 10:23:33;;;;;;;28.40;16.48;;;10.10;93.40;;;;;;6190814;23;20031;-90
2022/03/20 10:26:19;;;;;;;26.90;16.95;;;10.10;91.90;;;;;;6189870;23;20024;-90
2022/03/20 10:28:48;;;;;;;31.02;18.33;;;10.20;90.40;;;;;;6189405;23;20017;-87
2022/03/20 10:31:20;;;;;;;29.38;18.23;;;10.30;91.80;;;;;;6215231;23;20017;-90
2022/03/20 10:34:00;;;;;;;30.02;17.77;;;10.30;90.80;;;;;;6189406;23;20084;-86
2022/03/20 10:36:26;;;;;;;29.42;17.80;;;10.40;89.50;;;;;;6189383;23;20039;-87
2022/03/20 10:38:52;;;;;;;29.20;18.27;;;10.60;90.90;;;;;;6189233;23;20043;-90
2022/03/20 10:41:22;;;;;;;28.35;17.70;;;10.60;90.30;;;;;;6189346;23;20048;-89
2022/03/20 10:43:52;;;;;;;29.45;17.58;;;10.80;87.60;;;;;;6193030;22;20016;-85
2022/03/20 10:46:25;;;;;;;30.55;18.13;;;10.80;84.60;;;;;;6313337;22;20019;-88
2022/03/20 10:48:54;;;;;;;32.38;19.08;;;10.90;85.30;;;;;;6287973;22;20515;-87
2022/03/20 10:51:26;;;;;;;30.95;18.27;;;11.00;85.30;;;;;;6289619;22;20015;-90
2022/03/20 10:53:59;;;;;;;29.77;17.52;;;11.10;82.70;;;;;;6315385;22;20066;-90
2022/03/20 10:56:25;;;;;;;30.90;18.27;;;11.20;83.40;;;;;;6315196;22;20022;-87
2022/03/20 10:58:51;;;;;;;28.95;17.63;;;11.20;83.60;;;;;;6316327;22;20085;-88
2022/03/20 11:01:17;;;;;;;31.88;18.25;;;11.40;82.30;;;;;;6341972;22;20046;-91
2022/03/20 11:03:44;;;;;;;32.60;19.17;;;11.40;81.60;;;;;;6314550;22;20040;-89
2022/03/20 11:06:13;;;;;;;27.98;18.77;;;11.50;80.80;;;;;;6314572;22;20007;-88
2022/03/20 11:08:39;;;;;;;32.05;19.42;;;11.60;78.50;;;;;;6341769;22;20011;-89
2022/03/20 11:11:10;;;;;;;33.50;18.50;;;11.70;79.80;;;;;;6289730;22;19995;-89
2022/03/20 11:13:39;;;;;;;32.15;18.35;;;11.70;75.70;;;;;;6314312;22;20022;-88
2022/03/20 11:16:06;;;;;;;29.88;18.45;;;11.70;76.20;;;;;;6288051;22;20006;-91
2022/03/20 11:18:34;;;;;;;31.23;18.70;;;11.80;75.10;;;;;;6314262;22;20015;-88
2022/03/20 11:21:05;;;;;;;30.88;18.33;;;11.80;75.00;;;;;;6315325;22;20014;-90
2022/03/20 11:23:33;;;;;;;28.33;18.02;;;12.00;75.10;;;;;;6315040;22;20014;-91
2022/03/20 11:26:01;;;;;;;32.85;19.00;;;11.90;73.90;;;;;;6315208;22;20033;-87
2022/03/20 11:28:30;;;;;;;30.40;18.48;;;12.00;73.50;;;;;;6314962;22;20389;-91
2022/03/20 11:30:58;;;;;;;30.08;17.90;;;12.00;72.70;;;;;;6343328;22;20340;-88
2022/03/20 11:33:25;;;;;;;36.92;20.08;;;12.10;70.80;;;;;;6316206;22;20010;-87
2022/03/20 11:35:51;;;;;;;31.88;19.17;;;12.20;72.70;;;;;;6315459;22;20058;-87
2022/03/20 11:38:22;;;;;;;29.85;17.88;;;12.20;71.00;;;;;;6315575;22;20013;-90
2022/03/20 11:41:09;;;;;;;28.92;18.55;;;12.30;71.80;;;;;;6290122;22;19999;-87
2022/03/20 11:43:40;;;;;;;32.42;19.60;;;12.30;67.50;;;;;;6316336;22;20011;-82
2022/03/20 11:46:11;;;;;;;31.90;19.48;;;12.30;69.60;;;;;;6345233;22;20065;-90
2022/03/20 11:48:37;;;;;;;31.85;18.85;;;12.20;67.90;;;;;;6290104;22;20459;-90
2022/03/20 11:51:03;;;;;;;32.92;19.45;;;12.20;67.90;;;;;;6343976;22;20015;-89
2022/03/20 11:53:30;;;;;;;29.88;19.00;;;12.20;68.30;;;;;;6315530;22;20025;-91
2022/03/20 11:55:56;;;;;;;31.42;18.83;;;12.30;68.50;;;;;;6342605;22;20040;-90
2022/03/20 11:58:24;;;;;;;33.63;19.08;;;12.30;67.00;;;;;;6341656;22;20082;-78
2022/03/20 12:01:04;;;;;;;31.15;19.02;;;12.30;65.80;;;;;;6288896;22;20113;-90
2022/03/20 12:04:04;;;;;;;30.98;19.17;;;12.30;65.30;;;;;;6314968;22;20091;-89
2022/03/20 12:06:30;;;;;;;31.45;19.90;;;12.20;63.70;;;;;;6315983;22;20018;-90
2022/03/20 12:09:10;;;;;;;33.10;19.35;;;12.00;65.40;;;;;;6289604;22;20011;-86
2022/03/20 12:12:14;;;;;;;32.65;20.65;;;12.00;65.50;;;;;;6289360;22;20440;-87
2022/03/20 12:14:46;;;;;;;31.58;19.17;;;12.20;66.60;;;;;;6315154;22;20013;-89
2022/03/20 12:17:12;;;;;;;32.10;19.25;;;12.30;67.60;;;;;;6344104;22;20424;-89
2022/03/20 12:19:41;;;;;;;35.33;20.10;;;12.40;67.60;;;;;;6343331;22;20018;-91
2022/03/20 12:22:27;;;;;;;29.00;17.88;;;12.50;66.90;;;;;;6343133;22;20011;-89
2022/03/20 12:24:54;;;;;;;32.92;18.85;;;12.20;65.10;;;;;;6290094;22;20064;-89
2022/03/20 12:29:58;;;;;;;32.50;20.13;;;12.00;65.80;;;;;;6314671;22;20058;-87
2022/03/20 12:32:47;;;;;;;31.70;18.90;;;11.90;66.80;;;;;;6315064;22;20078;-88
2022/03/20 12:35:25;;;;;;;31.63;18.73;;;11.80;66.80;;;;;;6315308;22;20377;-88
2022/03/20 12:37:53;;;;;;;31.55;19.20;;;11.60;65.50;;;;;;6314048;22;20021;-87
2022/03/20 12:40:37;;;;;;;32.30;19.08;;;11.50;67.40;;;;;;6290220;22;20023;-90
2022/03/20 12:43:13;;;;;;;35.00;20.00;;;11.60;68.10;;;;;;6343449;22;20013;-88
2022/03/20 12:45:47;;;;;;;30.15;18.55;;;11.60;68.50;;;;;;6316359;22;20055;-87
2022/03/20 12:48:21;;;;;;;32.47;20.00;;;11.60;67.60;;;;;;6290439;22;20046;-87
2022/03/20 12:50:52;;;;;;;34.33;21.27;;;11.70;67.90;;;;;;6316013;22;20075;-90
2022/03/20 12:53:23;;;;;;;32.33;18.77;;;11.80;68.70;;;;;;6315551;22;20021;-88
2022/03/20 12:55:59;;;;;;;32.45;18.55;;;12.10;69.20;;;;;;6342990;22;20110;-89
2022/03/20 12:58:25;;;;;;;34.40;20.58;;;12.10;66.00;;;;;;6316259;22;20324;-87
2022/03/20 13:00:55;;;;;;;29.90;19.55;;;12.00;67.40;;;;;;6291092;22;20437;-89
2022/03/20 13:03:21;;;;;;;28.58;19.05;;;11.70;67.70;;;;;;6316456;22;20018;-88
2022/03/20 13:05:58;;;;;;;34.90;19.70;;;11.50;67.30;;;;;;6289958;22;20011;-91
2022/03/20 13:08:34;;;;;;;33.28;19.45;;;11.30;68.60;;;;;;6290189;22;20432;-91
2022/03/20 13:13:52;;;;;;;33.53;18.35;;;10.80;68.60;;;;;;6315404;22;20014;-88
2022/03/20 13:16:17;;;;;;;33.45;19.90;;;10.60;68.60;;;;;;6315112;22;20030;-90
2022/03/20 13:18:45;;;;;;;35.95;21.50;;;10.60;69.40;;;;;;6316031;22;20010;-89
2022/03/20 13:21:11;;;;;;;33.25;19.20;;;10.50;70.10;;;;;;6315927;22;20298;-87
2022/03/20 13:23:37;;;;;;;32.85;20.50;;;10.50;70.30;;;;;;6343726;22;20071;-89
2022/03/20 13:26:03;;;;;;;34.50;19.90;;;10.50;70.70;;;;;;6313569;22;20011;-82
2022/03/20 13:28:34;;;;;;;36.75;20.55;;;10.60;71.40;;;;;;6314365;22;20022;-86
2022/03/20 13:31:02;;;;;;;36.58;20.23;;;10.60;71.90;;;;;;6341650;22;20058;-89
2022/03/20 13:33:27;;;;;;;33.08;20.23;;;10.70;72.50;;;;;;6288982;22;20027;-89
2022/03/20 13:35:54;;;;;;;34.15;19.83;;;10.80;72.40;;;;;;6297143;22;20017;-89
2022/03/20 13:38:20;;;;;;;31.83;20.13;;;10.80;72.70;;;;;;6330097;22;20440;-87
2022/03/20 13:40:45;;;;;;;34.38;20.35;;;10.90;72.30;;;;;;6334714;22;20018;-87
2022/03/20 13:43:23;;;;;;;36.97;20.08;;;10.90;72.10;;;;;;6329138;22;20007;-91
2022/03/20 13:45:49;;;;;;;32.83;19.23;;;11.00;72.20;;;;;;6317677;22;20192;-86
2022/03/20 13:48:17;;;;;;;31.92;20.23;;;11.00;72.30;;;;;;6316189;22;20396;-82
2022/03/20 13:50:43;;;;;;;33.85;19.83;;;11.00;72.10;;;;;;6312245;22;20511;-85
2022/03/20 13:53:09;;;;;;;32.10;19.92;;;11.00;73.00;;;;;;6287565;22;20011;-85
2022/03/20 13:55:37;;;;;;;32.00;19.55;;;11.00;74.10;;;;;;6314515;22;20085;-88
2022/03/20 13:58:05;;;;;;;32.38;19.83;;;10.90;74.00;;;;;;6314265;22;20014;-86
2022/03/20 14:00:35;;;;;;;35.53;19.15;;;10.90;73.60;;;;;;6313583;22;20091;-86
2022/03/20 14:03:02;;;;;;;32.33;20.40;;;10.80;73.10;;;;;;6313553;22;20064;-84
2022/03/20 14:05:28;;;;;;;33.00;19.55;;;10.90;74.00;;;;;;6342583;22;20007;-86
2022/03/20 14:08:08;;;;;;;34.55;19.85;;;10.90;74.10;;;;;;6314313;22;20279;-86
2022/03/20 14:10:46;;;;;;;34.88;20.00;;;11.00;76.20;;;;;;6341645;22;20022;-87
2022/03/20 14:13:19;;;;;;;32.58;20.33;;;11.20;75.20;;;;;;6313653;22;20017;-90
2022/03/20 14:16:06;;;;;;;38.92;21.48;;;11.20;75.30;;;;;;6341574;22;20007;-88
2022/03/20 14:18:53;;;;;;;34.45;20.73;;;11.20;75.80;;;;;;6313418;22;20033;-86
2022/03/20 14:21:27;;;;;;;34.33;19.92;;;11.20;76.40;;;;;;6314058;22;20090;-83
2022/03/20 14:24:06;;;;;;;33.13;19.70;;;11.20;76.50;;;;;;6313611;22;20010;-85
2022/03/20 14:26:36;;;;;;;34.22;20.90;;;11.10;76.80;;;;;;6313311;22;20506;-86
2022/03/20 14:29:09;;;;;;;35.08;21.50;;;11.10;76.50;;;;;;6313119;22;20011;-88
2022/03/20 14:40:14;;;;;;;33.88;20.73;;;10.90;77.60;;;;;;6313678;22;20015;-86
2022/03/20 14:42:41;;;;;;;33.90;21.05;;;10.90;78.30;;;;;;6288546;22;20032;-86
2022/03/20 14:45:09;;;;;;;33.95;20.42;;;10.90;78.80;;;;;;6313814;22;20010;-87
2022/03/20 14:47:36;;;;;;;31.85;20.23;;;10.80;78.90;;;;;;6313665;22;20018;-86
2022/03/20 14:50:06;;;;;;;36.70;20.48;;;10.80;79.50;;;;;;6312121;22;20042;-85
2022/03/20 14:52:32;;;;;;;31.98;20.15;;;10.80;80.20;;;;;;6312433;22;20352;-89
2022/03/20 14:55:01;;;;;;;33.67;20.17;;;10.70;80.50;;;;;;6314814;22;20010;-91
2022/03/20 14:57:27;;;;;;;32.53;20.88;;;10.70;80.80;;;;;;6317575;22;20042;-87
2022/03/20 14:59:53;;;;;;;37.95;21.17;;;10.70;81.30;;;;;;6317467;22;20436;-89
2022/03/20 15:02:19;;;;;;;32.35;20.77;;;10.70;81.70;;;;;;6316295;22;20014;-89
2022/03/20 15:04:47;;;;;;;37.80;21.40;;;10.60;81.70;;;;;;6315081;22;20010;-84
2022/03/20 15:07:13;;;;;;;36.60;21.67;;;10.60;82.90;;;;;;6315601;22;20022;-85
2022/03/20 15:12:25;;;;;;;32.67;21.08;;;10.60;90.30;;;;;;6315436;22;20019;-88
2022/03/20 15:14:50;;;;;;;36.60;21.58;;;10.60;91.10;;;;;;6317561;22;20044;-85
2022/03/20 15:17:17;;;;;;;37.35;22.00;;;10.60;93.40;;;;;;6316819;22;20061;-89
2022/03/20 15:19:43;;;;;;;34.72;21.38;;;10.60;95.00;;;;;;6290214;22;20025;-88
2022/03/20 15:22:09;;;;;;;38.95;22.85;;;10.60;96.00;;;;;;6315275;22;20082;-86
2022/03/20 15:24:37;;;;;;;35.15;21.08;;;10.50;97.30;;;;;;6315388;22;20349;-89
2022/03/20 15:27:03;;;;;;;32.55;21.98;;;10.50;99.20;;;;;;6314724;22;20017;-87
2022/03/20 15:29:30;;;;;;;33.85;21.00;;;10.50;99.90;;;;;;6316154;22;20014;-89
2022/03/20 15:31:56;;;;;;;36.95;22.45;;;10.40;99.90;;;;;;6343428;22;20506;-90
2022/03/20 15:34:23;;;;;;;43.00;23.33;;;10.40;99.90;;;;;;6342998;22;20007;-87
2022/03/20 15:36:54;;;;;;;39.72;22.92;;;10.40;99.90;;;;;;6289821;22;20098;-89
2022/03/20 15:39:20;;;;;;;39.65;22.67;;;10.30;99.90;;;;;;6316077;22;20042;-88
2022/03/20 15:41:48;;;;;;;38.90;23.27;;;10.30;99.90;;;;;;6316767;22;20333;-87
2022/03/20 15:44:14;;;;;;;38.65;24.20;;;10.20;99.90;;;;;;6343225;22;20028;-88
2022/03/20 15:46:40;;;;;;;45.08;25.95;;;10.00;99.90;;;;;;6343410;22;20036;-84
2022/03/20 15:49:06;;;;;;;43.25;26.25;;;9.70;99.90;;;;;;6289430;22;20059;-88
2022/03/20 15:51:37;;;;;;;49.15;28.08;;;9.50;99.90;;;;;;6288869;22;20011;-88
2022/03/20 15:54:04;;;;;;;46.38;27.38;;;9.20;99.90;;;;;;6290151;22;20457;-88
2022/03/20 15:56:29;;;;;;;46.35;26.38;;;9.00;99.90;;;;;;6315021;22;20440;-91
2022/03/20 15:58:55;;;;;;;48.28;29.80;;;8.70;99.90;;;;;;6317137;22;20021;-91
2022/03/20 16:01:22;;;;;;;48.95;27.92;;;8.50;99.90;;;;;;6342686;22;20011;-89
2022/03/20 16:03:49;;;;;;;49.30;29.30;;;8.30;99.90;;;;;;6342641;22;20007;-88
2022/03/20 16:06:15;;;;;;;50.63;26.60;;;8.20;99.90;;;;;;6343663;22;20043;-90
2022/03/20 16:08:41;;;;;;;50.38;29.10;;;8.00;99.90;;;;;;6345837;22;20006;-90
2022/03/20 16:11:07;;;;;;;49.47;29.55;;;7.90;99.90;;;;;;6291316;22;20147;-90
2022/03/20 16:13:33;;;;;;;53.17;30.23;;;7.80;99.90;;;;;;6291620;22;20285;-91
2022/03/20 16:16:25;;;;;;;;;;;;;;;;;;;;;
2022/03/20 16:18:51;;;;;;;56.67;32.35;;;7.50;99.90;;;;;;6316304;22;20387;-90
2022/03/20 16:21:18;;;;;;;59.03;32.45;;;7.30;99.90;;;;;;6290414;22;20095;-88
2022/03/20 16:29:16;;;;;;;56.33;32.30;;;7.10;99.90;;;;;;6318416;22;20015;-90
2022/03/20 16:31:44;;;;;;;62.17;33.88;;;7.00;99.90;;;;;;6317186;22;20463;-91
2022/03/20 16:34:09;;;;;;;61.90;34.78;;;6.90;99.90;;;;;;6316117;22;20019;-90
2022/03/20 16:37:03;;;;;;;;;;;;;;;;;;;;;
2022/03/20 16:39:31;;;;;;;65.13;36.22;;;6.80;99.90;;;;;;6238183;22;20046;-91
2022/03/20 16:41:56;;;;;;;68.78;37.70;;;6.70;99.90;;;;;;6315887;22;20082;-90
2022/03/20 16:44:22;;;;;;;69.35;37.70;;;6.60;99.90;;;;;;6315741;22;20014;-93
2022/03/20 16:46:48;;;;;;;68.43;37.15;;;6.60;99.90;;;;;;6289480;22;20017;-93
2022/03/20 16:49:15;;;;;;;68.30;36.38;;;6.60;99.90;;;;;;6315793;22;20014;-88
2022/03/20 16:51:40;;;;;;;68.57;37.28;;;6.50;99.90;;;;;;6290084;22;20014;-89
2022/03/20 16:54:06;;;;;;;67.47;37.50;;;6.50;99.90;;;;;;6316886;22;20011;-86
2022/03/20 16:56:32;;;;;;;71.32;38.80;;;6.60;99.90;;;;;;6316802;22;20023;-88
2022/03/20 16:58:57;;;;;;;74.20;40.25;;;6.60;99.90;;;;;;6316976;22;20010;-90
2022/03/20 17:01:23;;;;;;;65.28;35.33;;;6.60;99.90;;;;;;6291129;22;20026;-88
2022/03/20 17:03:49;;;;;;;70.38;37.65;;;6.60;99.90;;;;;;6316769;22;20056;-89
2022/03/20 17:06:15;;;;;;;70.50;38.72;;;6.60;99.90;;;;;;6316377;22;20009;-89
2022/03/20 17:08:41;;;;;;;72.65;39.63;;;6.60;99.90;;;;;;6315256;22;20042;-91
2022/03/20 17:11:07;;;;;;;71.13;39.60;;;6.60;99.90;;;;;;6291317;22;20021;-90
2022/03/20 17:13:34;;;;;;;74.75;40.60;;;6.60;99.90;;;;;;6316193;22;20068;-91
2022/03/20 17:16:01;;;;;;;71.20;39.05;;;6.70;99.90;;;;;;6289888;22;20428;-92
2022/03/20 17:18:27;;;;;;;78.97;43.45;;;6.70;99.90;;;;;;6289487;22;20015;-90
2022/03/20 17:21:04;;;;;;;80.22;41.42;;;6.80;99.90;;;;;;6315031;22;20017;-88
2022/03/20 17:23:29;;;;;;;74.13;40.65;;;6.80;99.90;;;;;;6288710;22;20059;-89
2022/03/20 17:25:58;;;;;;;79.45;42.67;;;6.80;99.90;;;;;;6315736;22;20046;-86
2022/03/20 17:28:23;;;;;;;78.40;41.92;;;6.90;99.90;;;;;;6293764;22;20010;-88
2022/03/20 17:30:49;;;;;;;77.25;40.88;;;6.90;99.90;;;;;;6318379;22;20056;-90
2022/03/20 17:33:16;;;;;;;73.75;39.92;;;6.90;99.90;;;;;;6293515;22;20026;-88
2022/03/20 17:35:43;;;;;;;68.13;37.35;;;6.90;99.90;;;;;;6318748;22;20023;-89
2022/03/20 17:38:10;;;;;;;65.15;37.35;;;6.80;99.90;;;;;;6316748;22;20015;-88
2022/03/20 17:40:37;;;;;;;65.93;37.78;;;6.80;99.90;;;;;;6345422;22;20060;-89
2022/03/20 17:43:03;;;;;;;73.07;39.25;;;6.70;99.90;;;;;;6290106;22;20117;-89
2022/03/20 17:45:34;;;;;;;68.45;37.35;;;6.70;99.90;;;;;;6316472;22;20022;-87
2022/03/20 17:48:01;;;;;;;64.50;37.83;;;6.70;99.90;;;;;;6318625;22;20313;-90
2022/03/20 17:50:27;;;;;;;72.18;39.88;;;6.60;99.90;;;;;;6316826;22;20021;-89
2022/03/20 17:52:53;;;;;;;64.43;37.97;;;6.60;99.90;;;;;;6316812;22;20043;-88
2022/03/20 17:55:18;;;;;;;70.78;39.58;;;6.50;99.90;;;;;;6317097;22;20003;-88
2022/03/20 17:57:44;;;;;;;68.03;38.88;;;6.40;99.90;;;;;;6319180;22;20022;-90
2022/03/20 18:00:15;;;;;;;77.47;41.10;;;6.40;99.90;;;;;;6349314;22;20375;-88
2022/03/20 18:08:14;;;;;;;76.72;40.58;;;6.20;99.90;;;;;;6316358;22;20015;-77
2022/03/20 18:10:40;;;;;;;75.97;41.72;;;6.10;99.90;;;;;;6344497;22;20079;-91
2022/03/20 18:13:30;;;;;;;;;;;;;;;;;;;;;
2022/03/20 18:15:56;;;;;;;78.50;41.53;;;6.00;99.90;;;;;;6314719;22;20030;-89
2022/03/20 18:18:26;;;;;;;79.13;41.70;;;6.00;99.90;;;;;;6290850;22;20062;-90
2022/03/20 18:20:52;;;;;;;83.93;42.20;;;6.00;99.90;;;;;;6291291;22;20022;-90
2022/03/20 18:23:18;;;;;;;75.68;41.28;;;5.90;99.90;;;;;;6289543;22;20017;-87